Terminal Aerodrome Forecast
Issued by NWS

Home | Current Version | Previous Version | Graphics & Text | Print | Product List | Glossary On
Versions: 1 2 3 4 5 6 7 8 9 10 11 12 13 14 15 16 17 18 19 20 21 22 23
000
FTUS43 KMPX 200520
TAFRWF
TAF
KRWF 200520Z 2006/2106 14007KT 4SM BR OVC005
     FM201000 14006KT 1SM BR VV002
     FM201600 13006KT 2SM BR OVC004
     FM202000 13006KT 4SM BR OVC005
     FM210000 12004KT 2SM -DZ BR OVC003=

USA.gov is the U.S. government's official web portal to all federal, state and local government web resources and services.